createdAt,value
2019-04-26T00:01:59.965Z,12.00
2019-04-26T00:04:29.187Z,12.00
2019-04-26T00:06:58.129Z,12.00
2019-04-26T00:09:40.385Z,12.00
2019-04-26T00:12:19.957Z,11.90
2019-04-26T00:14:50.747Z,11.90
2019-04-26T00:17:24.226Z,11.90
2019-04-26T00:19:53.535Z,11.90
2019-04-26T00:22:22.916Z,12.00
2019-04-26T00:24:51.817Z,12.00
2019-04-26T00:27:21.292Z,11.90
2019-04-26T00:29:50.282Z,12.00
2019-04-26T00:32:19.256Z,12.00
2019-04-26T00:34:48.234Z,12.00
2019-04-26T00:37:17.951Z,11.90
2019-04-26T00:39:46.994Z,11.90
2019-04-26T00:42:16.574Z,11.90
2019-04-26T00:44:45.579Z,11.90
2019-04-26T00:47:15.294Z,11.80
2019-04-26T00:49:44.750Z,11.70
2019-04-26T00:52:14.632Z,11.70
2019-04-26T00:54:45.599Z,11.60
2019-04-26T00:57:16.004Z,11.60
2019-04-26T00:59:45.363Z,11.60
2019-04-26T01:02:16.666Z,11.60
2019-04-26T01:04:45.712Z,11.60
2019-04-26T01:07:15.585Z,11.50
2019-04-26T01:09:44.672Z,11.50
2019-04-26T01:12:13.569Z,11.50
2019-04-26T01:14:42.546Z,11.50
2019-04-26T01:17:11.461Z,11.50
2019-04-26T01:19:42.428Z,11.60
2019-04-26T01:22:14.273Z,11.60
2019-04-26T01:24:45.581Z,11.60
2019-04-26T01:27:17.119Z,11.60
2019-04-26T01:29:49.682Z,11.60
2019-04-26T01:32:20.271Z,11.60
2019-04-26T01:34:51.354Z,11.70
2019-04-26T01:37:20.618Z,11.80
2019-04-26T01:39:54.326Z,11.90
2019-04-26T01:42:26.393Z,12.10
2019-04-26T01:45:05.671Z,12.20
2019-04-26T01:47:34.979Z,12.20
2019-04-26T01:50:04.230Z,12.20
2019-04-26T01:52:33.156Z,12.10
2019-04-26T01:55:02.207Z,12.10
2019-04-26T01:57:32.136Z,11.90
2019-04-26T02:00:05.096Z,12.00
2019-04-26T02:02:38.566Z,12.10
2019-04-26T02:05:22.500Z,12.20
2019-04-26T02:07:51.769Z,12.10
2019-04-26T02:10:24.048Z,12.00
2019-04-26T02:12:55.652Z,11.90
2019-04-26T02:15:27.535Z,11.90
2019-04-26T02:17:57.939Z,11.80
2019-04-26T02:20:46.409Z,11.80
2019-04-26T02:23:23.627Z,11.80
2019-04-26T02:25:53.491Z,11.80
2019-04-26T02:28:22.393Z,11.70
2019-04-26T02:30:51.542Z,11.80
2019-04-26T02:33:20.972Z,11.90
2019-04-26T02:35:49.904Z,11.80
2019-04-26T02:38:19.309Z,11.70
2019-04-26T02:40:49.556Z,11.60
2019-04-26T02:43:20.863Z,11.40
2019-04-26T02:45:54.968Z,11.30
2019-04-26T02:48:37.938Z,11.30
2019-04-26T02:51:16.174Z,11.40
2019-04-26T02:54:07.589Z,11.50
2019-04-26T02:56:42.084Z,11.40
2019-04-26T02:59:13.942Z,11.30
2019-04-26T03:01:43.006Z,11.20
2019-04-26T03:04:11.916Z,11.20
2019-04-26T03:06:43.034Z,11.30
2019-04-26T03:09:13.903Z,11.40
2019-04-26T03:11:45.798Z,11.60
2019-04-26T03:14:18.796Z,11.60
2019-04-26T03:17:09.957Z,11.50
2019-04-26T03:19:55.469Z,11.40
2019-04-26T03:22:40.691Z,11.20
2019-04-26T03:25:38.233Z,11.20
2019-04-26T03:28:19.351Z,11.30
2019-04-26T03:30:56.828Z,11.20
2019-04-26T03:33:53.233Z,11.10
2019-04-26T03:36:42.138Z,11.00
2019-04-26T03:39:14.987Z,11.00
2019-04-26T03:42:03.411Z,11.00
2019-04-26T03:44:40.076Z,11.20
2019-04-26T03:47:11.900Z,11.50
2019-04-26T03:50:09.560Z,11.70
2019-04-26T03:52:58.398Z,11.80
2019-04-26T03:55:32.456Z,11.80
2019-04-26T03:58:18.139Z,11.80
2019-04-26T04:00:57.892Z,11.80
2019-04-26T04:03:39.279Z,11.80
2019-04-26T04:06:12.345Z,11.90
2019-04-26T04:08:56.219Z,12.00
2019-04-26T04:11:28.104Z,12.10
2019-04-26T04:14:06.367Z,12.10
2019-04-26T04:16:51.877Z,12.20
2019-04-26T04:19:34.411Z,12.10
2019-04-26T04:22:06.350Z,12.10
2019-04-26T04:24:45.419Z,12.10
2019-04-26T04:27:20.596Z,12.00
2019-04-26T04:29:55.190Z,12.00
2019-04-26T04:32:28.914Z,12.00
2019-04-26T04:35:00.753Z,12.00
2019-04-26T04:37:32.667Z,12.00
2019-04-26T04:40:21.103Z,12.00
2019-04-26T04:43:15.434Z,12.00
2019-04-26T04:46:04.282Z,12.00
2019-04-26T04:48:56.219Z,11.90
2019-04-26T04:52:00.074Z,11.90
2019-04-26T04:54:41.515Z,11.90
2019-04-26T04:57:17.755Z,11.80
2019-04-26T05:00:06.411Z,11.80
2019-04-26T05:02:57.915Z,11.80
2019-04-26T05:06:06.621Z,11.80
2019-04-26T05:08:30.210Z,11.80
2019-04-26T05:11:13.943Z,11.80
2019-04-26T05:13:57.799Z,11.80
2019-04-26T05:16:40.284Z,11.80
2019-04-26T05:19:28.857Z,11.80
2019-04-26T05:22:06.402Z,11.90
2019-04-26T05:24:38.359Z,11.90
2019-04-26T05:27:33.139Z,12.00
2019-04-26T05:30:09.587Z,12.00
2019-04-26T05:33:07.102Z,12.10
2019-04-26T05:36:00.379Z,12.30
2019-04-26T05:38:41.496Z,12.40
2019-04-26T05:41:31.310Z,12.50
2019-04-26T05:44:21.459Z,12.60
2019-04-26T05:47:01.084Z,12.70
2019-04-26T05:50:14.247Z,12.70
2019-04-26T05:52:51.333Z,12.80
2019-04-26T05:55:45.572Z,13.00
2019-04-26T05:58:20.146Z,13.10
2019-04-26T06:01:13.041Z,13.30
2019-04-26T06:04:25.278Z,13.70
2019-04-26T06:07:28.641Z,14.00
2019-04-26T06:10:26.010Z,14.40
2019-04-26T06:13:20.649Z,14.50
2019-04-26T06:16:05.737Z,14.70
2019-04-26T06:18:59.578Z,14.80
2019-04-26T06:21:43.462Z,14.90
2019-04-26T06:24:15.324Z,14.60
2019-04-26T06:27:14.256Z,14.40
2019-04-26T06:29:50.379Z,14.30
2019-04-26T06:32:25.507Z,14.60
2019-04-26T06:35:15.328Z,14.90
2019-04-26T06:37:51.413Z,15.10
2019-04-26T06:40:25.774Z,15.40
2019-04-26T06:43:08.302Z,15.70
2019-04-26T06:45:54.288Z,15.70
2019-04-26T06:48:48.624Z,15.80
2019-04-26T06:51:24.531Z,15.80
2019-04-26T06:54:10.259Z,15.80
2019-04-26T06:57:12.670Z,15.70
2019-04-26T06:59:53.606Z,15.30
2019-04-26T07:02:28.446Z,15.00
2019-04-26T07:05:15.249Z,15.10
2019-04-26T07:08:12.629Z,15.20
2019-04-26T07:10:45.214Z,15.20
2019-04-26T07:13:41.234Z,15.20
2019-04-26T07:16:45.182Z,15.30
2019-04-26T07:20:03.993Z,15.40
2019-04-26T07:23:05.943Z,15.50
2019-04-26T07:25:57.869Z,15.60
2019-04-26T07:28:34.390Z,15.90
2019-04-26T07:31:14.803Z,16.10
2019-04-26T07:34:07.652Z,16.30
2019-04-26T07:37:01.894Z,16.50
2019-04-26T07:40:12.184Z,16.60
2019-04-26T07:43:06.017Z,16.90
2019-04-26T07:45:55.897Z,17.30
2019-04-26T07:48:59.435Z,17.70
2019-04-26T07:52:04.691Z,17.80
2019-04-26T07:54:39.411Z,18.10
2019-04-26T07:57:43.350Z,18.20
2019-04-26T08:00:18.241Z,18.30
2019-04-26T08:02:56.940Z,18.30
2019-04-26T08:05:33.419Z,18.30
2019-04-26T08:08:08.645Z,18.20
2019-04-26T08:10:40.302Z,18.10
2019-04-26T08:13:13.080Z,17.90
2019-04-26T08:16:04.849Z,17.70
2019-04-26T08:18:37.807Z,17.10
2019-04-26T08:21:26.025Z,16.90
2019-04-26T08:24:02.170Z,15.70
2019-04-26T08:26:35.512Z,15.10
2019-04-26T08:29:09.188Z,14.50
2019-04-26T08:31:41.392Z,14.10
2019-04-26T08:34:14.938Z,13.60
2019-04-26T08:36:53.118Z,13.50
2019-04-26T08:39:44.556Z,13.40
2019-04-26T08:42:03.803Z,13.30
2019-04-26T08:44:55.443Z,13.40
2019-04-26T08:47:30.567Z,13.30
2019-04-26T08:50:02.298Z,13.10
2019-04-26T08:52:34.148Z,13.00
2019-04-26T08:55:06.158Z,12.90
2019-04-26T08:57:38.980Z,12.80
2019-04-26T09:00:34.781Z,12.80
2019-04-26T09:03:23.654Z,12.70
2019-04-26T09:05:55.373Z,12.60
2019-04-26T09:08:27.228Z,12.60
2019-04-26T09:10:59.541Z,12.60
2019-04-26T09:13:31.513Z,12.70
2019-04-26T09:16:09.881Z,12.90
2019-04-26T09:18:43.345Z,13.00
2019-04-26T09:21:13.307Z,13.00
2019-04-26T09:23:59.384Z,13.20
2019-04-26T09:26:48.114Z,13.70
2019-04-26T09:29:30.578Z,13.90
2019-04-26T09:32:08.395Z,14.30
2019-04-26T09:34:41.212Z,14.40
2019-04-26T09:37:08.499Z,14.80
2019-04-26T09:39:41.628Z,15.20
2019-04-26T09:42:24.768Z,15.00
2019-04-26T09:44:56.865Z,14.90
2019-04-26T09:47:36.697Z,14.30
2019-04-26T09:50:23.897Z,13.90
2019-04-26T09:52:58.319Z,13.60
2019-04-26T09:55:35.352Z,13.90
2019-04-26T09:57:58.186Z,14.20
2019-04-26T10:00:28.916Z,14.60
2019-04-26T10:02:57.886Z,15.00
2019-04-26T10:05:26.845Z,15.40
2019-04-26T10:07:55.820Z,15.90
2019-04-26T10:10:26.617Z,15.90
2019-04-26T10:13:06.276Z,16.10
2019-04-26T10:15:38.956Z,16.00
2019-04-26T10:18:08.259Z,16.30
2019-04-26T10:20:37.334Z,16.70
2019-04-26T10:23:06.467Z,16.90
2019-04-26T10:25:35.384Z,17.30
2019-04-26T10:28:04.387Z,17.40
2019-04-26T10:30:33.371Z,16.80
2019-04-26T10:33:03.432Z,16.40
2019-04-26T10:35:32.769Z,16.20
2019-04-26T10:38:01.715Z,16.10
2019-04-26T10:40:35.785Z,16.00
2019-04-26T10:43:02.123Z,16.10
2019-04-26T10:45:31.203Z,16.30
2019-04-26T10:48:00.229Z,16.60
2019-04-26T10:50:32.954Z,17.00
2019-04-26T10:53:04.280Z,17.30
2019-04-26T10:55:34.972Z,17.70
2019-04-26T10:58:15.002Z,17.80
2019-04-26T11:00:48.375Z,18.90
2019-04-26T11:03:16.066Z,18.60
2019-04-26T11:05:45.231Z,18.30
2019-04-26T11:08:14.194Z,18.00
2019-04-26T11:10:48.901Z,17.60
2019-04-26T11:13:13.971Z,17.40
2019-04-26T11:15:43.033Z,16.90
2019-04-26T11:18:12.594Z,16.60
2019-04-26T11:20:45.524Z,16.10
2019-04-26T11:23:12.911Z,16.20
2019-04-26T11:25:41.941Z,16.60
2019-04-26T11:28:11.134Z,17.00
2019-04-26T11:30:40.285Z,17.40
2019-04-26T11:33:11.164Z,17.70
2019-04-26T11:35:39.850Z,18.10
2019-04-26T11:38:09.043Z,17.90
2019-04-26T11:40:37.934Z,17.60
2019-04-26T11:43:07.153Z,17.70
2019-04-26T11:45:36.059Z,17.60
2019-04-26T11:48:05.461Z,17.50
2019-04-26T11:50:34.524Z,17.30
2019-04-26T11:53:06.169Z,17.00
2019-04-26T11:55:34.283Z,16.90
2019-04-26T11:58:03.290Z,17.10
2019-04-26T12:00:33.780Z,16.70
2019-04-26T12:03:02.748Z,16.40
2019-04-26T12:05:33.733Z,15.70
2019-04-26T12:08:16.474Z,15.90
2019-04-26T12:10:45.907Z,15.80
2019-04-26T12:13:15.283Z,15.30
2019-04-26T12:15:45.415Z,15.20
2019-04-26T12:18:15.446Z,15.10
2019-04-26T12:20:45.786Z,15.10
2019-04-26T12:23:20.568Z,14.90
2019-04-26T12:25:48.060Z,14.90
2019-04-26T12:28:16.351Z,14.70
2019-04-26T12:30:45.708Z,14.50
2019-04-26T12:33:14.809Z,14.20
2019-04-26T12:35:45.254Z,14.10
2019-04-26T12:38:14.145Z,13.90
2019-04-26T12:40:46.166Z,13.80
2019-04-26T12:43:15.608Z,13.80
2019-04-26T12:46:03.862Z,14.00
2019-04-26T12:48:32.771Z,14.30
2019-04-26T12:51:01.725Z,14.50
2019-04-26T12:53:31.336Z,14.80
2019-04-26T12:56:01.238Z,15.00
2019-04-26T12:58:30.144Z,15.30
2019-04-26T13:01:00.700Z,15.30
2019-04-26T13:03:30.406Z,15.30
2019-04-26T13:06:05.492Z,15.40
2019-04-26T13:08:34.778Z,15.40
2019-04-26T13:11:14.494Z,15.40
2019-04-26T13:13:40.111Z,15.60
2019-04-26T13:16:10.721Z,15.50
2019-04-26T13:18:41.214Z,15.50
2019-04-26T13:21:10.234Z,15.30
2019-04-26T13:23:39.148Z,15.20
2019-04-26T13:26:08.099Z,15.30
2019-04-26T13:28:37.014Z,15.50
2019-04-26T13:31:05.959Z,15.70
2019-04-26T13:33:34.874Z,15.60
2019-04-26T13:36:04.150Z,15.70
2019-04-26T13:38:33.139Z,15.40
2019-04-26T13:41:04.540Z,16.00
2019-04-26T13:43:32.633Z,15.20
2019-04-26T13:46:06.002Z,15.30
2019-04-26T13:48:51.842Z,15.20
2019-04-26T13:51:22.365Z,15.10
2019-04-26T13:53:54.195Z,15.10
2019-04-26T13:56:21.862Z,15.30
2019-04-26T13:58:54.452Z,15.60
2019-04-26T14:01:21.315Z,16.00
2019-04-26T14:03:50.218Z,16.80
2019-04-26T14:06:19.123Z,17.00
2019-04-26T14:08:48.067Z,17.10
2019-04-26T14:11:20.506Z,17.10
2019-04-26T14:13:47.561Z,17.30
2019-04-26T14:16:17.083Z,17.20
2019-04-26T14:18:47.540Z,17.00
2019-04-26T14:21:16.437Z,16.90
2019-04-26T14:23:53.119Z,16.80
2019-04-26T14:26:39.870Z,16.80
2019-04-26T14:29:06.752Z,16.70
2019-04-26T14:31:35.658Z,16.90
2019-04-26T14:34:05.374Z,17.20
2019-04-26T14:36:35.264Z,17.00
2019-04-26T14:39:06.380Z,16.80
2019-04-26T14:41:35.445Z,16.90
2019-04-26T14:44:14.857Z,16.60
2019-04-26T14:46:47.963Z,16.30
2019-04-26T14:49:06.100Z,16.00
2019-04-26T14:51:35.007Z,15.80
2019-04-26T14:54:07.408Z,15.70
2019-04-26T14:56:34.492Z,15.70
2019-04-26T14:59:08.179Z,15.60
2019-04-26T15:01:38.550Z,15.70
2019-04-26T15:04:28.080Z,15.80
2019-04-26T15:06:58.196Z,16.00
2019-04-26T15:09:33.326Z,16.10
2019-04-26T15:12:01.118Z,16.10
2019-04-26T15:14:28.517Z,16.10
2019-04-26T15:16:57.522Z,16.10
2019-04-26T15:19:26.548Z,15.90
2019-04-26T15:21:55.447Z,15.60
2019-04-26T15:24:25.893Z,15.40
2019-04-26T15:26:58.182Z,15.10
2019-04-26T15:29:26.832Z,14.70
2019-04-26T15:31:57.275Z,14.30
2019-04-26T15:34:26.816Z,14.10
2019-04-26T15:36:55.725Z,14.00
2019-04-26T15:39:44.405Z,13.80
2019-04-26T15:42:25.215Z,13.70
2019-04-26T15:45:03.430Z,13.60
2019-04-26T15:47:49.205Z,13.50
2019-04-26T15:50:19.715Z,13.50
2019-04-26T15:52:48.617Z,13.40
2019-04-26T15:55:17.557Z,13.30
2019-04-26T15:57:46.460Z,13.20
2019-04-26T16:00:15.668Z,13.20
2019-04-26T16:02:46.677Z,13.20
2019-04-26T16:05:16.943Z,13.00
2019-04-26T16:07:48.457Z,13.20
2019-04-26T16:10:18.349Z,13.20
2019-04-26T16:12:47.462Z,13.20
2019-04-26T16:15:16.512Z,13.20
2019-04-26T16:17:45.452Z,13.20
2019-04-26T16:20:14.644Z,13.20
2019-04-26T16:22:43.764Z,13.10
2019-04-26T16:25:13.043Z,13.10
2019-04-26T16:27:43.172Z,13.00
2019-04-26T16:30:32.602Z,13.00
2019-04-26T16:33:17.435Z,13.00
2019-04-26T16:35:52.501Z,13.00
2019-04-26T16:38:34.687Z,13.10
2019-04-26T16:41:04.556Z,13.00
2019-04-26T16:43:40.013Z,13.10
2019-04-26T16:46:04.690Z,13.00
2019-04-26T16:48:33.628Z,13.00
2019-04-26T16:51:08.549Z,12.90
2019-04-26T16:53:45.843Z,12.80
2019-04-26T16:56:03.926Z,12.70
2019-04-26T16:58:38.382Z,12.60
2019-04-26T17:01:04.676Z,12.60
2019-04-26T17:03:38.240Z,12.50
2019-04-26T17:06:10.826Z,12.50
2019-04-26T17:08:42.916Z,12.40
2019-04-26T17:11:07.652Z,12.40
2019-04-26T17:13:48.408Z,12.40
2019-04-26T17:16:09.851Z,12.30
2019-04-26T17:18:39.006Z,12.30
2019-04-26T17:21:08.213Z,12.30
2019-04-26T17:23:42.127Z,12.30
2019-04-26T17:26:18.783Z,12.20
2019-04-26T17:28:48.132Z,12.20
2019-04-26T17:31:17.585Z,12.10
2019-04-26T17:33:47.338Z,12.10
2019-04-26T17:36:17.932Z,12.10
2019-04-26T17:38:47.383Z,12.00
2019-04-26T17:41:16.322Z,12.00
2019-04-26T17:43:51.871Z,11.90
2019-04-26T17:46:18.284Z,11.90
2019-04-26T17:48:49.541Z,11.90
2019-04-26T17:51:22.909Z,11.80
2019-04-26T17:54:18.460Z,11.80
2019-04-26T17:56:25.963Z,11.80
2019-04-26T17:58:54.731Z,11.80
2019-04-26T18:01:41.802Z,11.70
2019-04-26T18:03:55.883Z,11.70
2019-04-26T18:06:29.971Z,11.70
2019-04-26T18:08:57.529Z,11.70
2019-04-26T18:11:26.813Z,11.70
2019-04-26T18:13:56.484Z,11.70
2019-04-26T18:16:29.391Z,11.70
2019-04-26T18:19:05.396Z,11.60
2019-04-26T18:21:49.542Z,11.60
2019-04-26T18:24:19.362Z,11.60
2019-04-26T18:26:52.351Z,11.60
2019-04-26T18:29:23.728Z,11.50
2019-04-26T18:31:50.456Z,11.50
2019-04-26T18:34:19.379Z,11.50
2019-04-26T18:36:48.380Z,11.40
2019-04-26T18:39:18.075Z,11.30
2019-04-26T18:41:47.925Z,11.30
2019-04-26T18:44:16.871Z,11.20
2019-04-26T18:46:53.615Z,11.10
2019-04-26T18:49:24.983Z,11.10
2019-04-26T18:51:54.616Z,11.10
2019-04-26T18:54:32.836Z,11.10
2019-04-26T18:57:03.225Z,11.10
2019-04-26T18:59:34.013Z,11.10
2019-04-26T19:02:03.965Z,11.10
2019-04-26T19:04:33.580Z,11.10
2019-04-26T19:07:03.585Z,11.10
2019-04-26T19:09:45.272Z,11.10
2019-04-26T19:12:05.852Z,11.10
2019-04-26T19:15:04.201Z,11.10
2019-04-26T19:17:49.141Z,11.10
2019-04-26T19:20:24.019Z,11.00
2019-04-26T19:23:00.833Z,11.00
2019-04-26T19:25:34.502Z,11.10
2019-04-26T19:28:06.621Z,11.00
2019-04-26T19:30:32.498Z,11.00
2019-04-26T19:33:02.454Z,10.90
2019-04-26T19:35:33.274Z,10.90
2019-04-26T19:38:03.271Z,10.90
2019-04-26T19:40:39.362Z,10.80
2019-04-26T19:43:12.612Z,10.80
2019-04-26T19:45:52.027Z,10.80
2019-04-26T19:48:26.082Z,10.70
2019-04-26T19:51:01.669Z,10.70
2019-04-26T19:53:33.303Z,10.70
2019-04-26T19:56:10.534Z,10.60
2019-04-26T19:58:45.797Z,10.50
2019-04-26T20:01:16.586Z,10.50
2019-04-26T20:03:47.263Z,10.40
2019-04-26T20:06:18.815Z,10.30
2019-04-26T20:08:49.561Z,10.30
2019-04-26T20:11:18.808Z,10.30
2019-04-26T20:13:51.758Z,10.30
2019-04-26T20:16:18.980Z,10.30
2019-04-26T20:18:47.871Z,10.30
2019-04-26T20:21:16.813Z,10.30
2019-04-26T20:23:47.462Z,10.20
2019-04-26T20:26:16.407Z,10.20
2019-04-26T20:28:45.315Z,10.20
2019-04-26T20:31:21.879Z,10.20
2019-04-26T20:33:50.783Z,10.20
2019-04-26T20:36:21.542Z,10.10
2019-04-26T20:38:52.069Z,10.10
2019-04-26T20:41:22.035Z,10.10
2019-04-26T20:44:03.111Z,10.00
2019-04-26T20:46:24.921Z,10.00
2019-04-26T20:48:52.326Z,9.90
2019-04-26T20:51:22.473Z,9.90
2019-04-26T20:53:51.849Z,10.00
2019-04-26T20:56:22.461Z,9.90
2019-04-26T20:58:52.262Z,9.90
2019-04-26T21:01:22.382Z,9.90
2019-04-26T21:03:51.799Z,9.90
2019-04-26T21:06:22.205Z,9.90
2019-04-26T21:08:53.792Z,9.80
2019-04-26T21:11:22.005Z,9.90
2019-04-26T21:13:51.946Z,9.80
2019-04-26T21:16:23.609Z,9.80
2019-04-26T21:18:52.559Z,9.80
2019-04-26T21:21:21.790Z,9.90
2019-04-26T21:23:51.755Z,9.90
2019-04-26T21:26:22.283Z,9.80
2019-04-26T21:29:03.328Z,9.90
2019-04-26T21:31:36.140Z,9.90
2019-04-26T21:34:07.960Z,9.90
2019-04-26T21:36:53.350Z,9.90
2019-04-26T21:39:23.885Z,9.90
2019-04-26T21:42:04.443Z,9.90
2019-04-26T21:44:35.512Z,9.80
2019-04-26T21:47:04.527Z,9.80
2019-04-26T21:49:35.766Z,9.80
2019-04-26T21:52:04.297Z,9.80
2019-04-26T21:54:33.197Z,9.80
2019-04-26T21:57:03.697Z,9.80
2019-04-26T21:59:35.170Z,9.80
2019-04-26T22:02:03.458Z,9.80
2019-04-26T22:04:36.360Z,9.80
2019-04-26T22:07:05.254Z,9.80
2019-04-26T22:09:52.874Z,9.90
2019-04-26T22:12:23.320Z,9.80
2019-04-26T22:15:10.312Z,9.80
2019-04-26T22:17:44.369Z,9.80
2019-04-26T22:20:24.043Z,9.80
2019-04-26T22:22:57.014Z,9.80
2019-04-26T22:25:27.486Z,9.80
2019-04-26T22:28:00.242Z,9.80
2019-04-26T22:30:29.539Z,9.80
2019-04-26T22:32:58.728Z,9.80
2019-04-26T22:35:27.617Z,9.80
2019-04-26T22:37:57.014Z,9.80
2019-04-26T22:40:25.908Z,9.80
2019-04-26T22:42:56.423Z,9.80
2019-04-26T22:45:44.115Z,9.80
2019-04-26T22:48:19.185Z,9.80
2019-04-26T22:50:46.153Z,9.80
2019-04-26T22:53:15.115Z,9.80
2019-04-26T22:55:46.171Z,9.80
2019-04-26T22:58:15.113Z,9.80
2019-04-26T23:00:45.430Z,9.80
2019-04-26T23:03:15.100Z,9.80
2019-04-26T23:05:44.001Z,9.70
2019-04-26T23:08:13.582Z,9.70
2019-04-26T23:10:44.242Z,9.70
2019-04-26T23:13:20.435Z,9.70
2019-04-26T23:16:00.619Z,9.70
2019-04-26T23:18:28.954Z,9.70
2019-04-26T23:21:17.566Z,9.70
2019-04-26T23:23:46.618Z,9.70
2019-04-26T23:26:15.543Z,9.60
2019-04-26T23:28:44.494Z,9.60
2019-04-26T23:31:13.512Z,9.60
2019-04-26T23:33:42.922Z,9.50
2019-04-26T23:36:13.467Z,9.50
2019-04-26T23:38:43.868Z,9.40
2019-04-26T23:41:14.258Z,9.50
2019-04-26T23:43:43.394Z,9.40
2019-04-26T23:46:14.391Z,9.40
2019-04-26T23:48:48.841Z,9.40
2019-04-26T23:51:13.474Z,9.40
2019-04-26T23:53:42.855Z,9.40
2019-04-26T23:56:16.282Z,9.40
2019-04-26T23:58:44.039Z,9.40
